Time;durP1;ratioP1;P1;durP2;ratioP2;P2;SDS_P1;SDS_P2;PMS_P1;PMS_P2;Temp;Humidity;BMP_temperature;BMP_pressure;BME280_temperature;BME280_humidity;BME280_pressure;Samples;Min_cycle;Max_cycle;Signal;HPM_P1;HPM_P2
2023/06/02 00:03:37;;;;;;;10.63;2.60;;;12.30;1.00;;;;;;20871202;28;20339;-40
2023/06/02 00:13:39;;;;;;;5.00;1.67;;;12.30;1.00;;;;;;20877464;28;20040;-40
2023/06/02 00:23:40;;;;;;;5.07;1.50;;;12.20;1.00;;;;;;20872693;28;20371;-40
2023/06/02 00:33:41;;;;;;;5.50;1.80;;;12.30;1.00;;;;;;20866316;28;20033;-40
2023/06/02 00:43:42;;;;;;;6.63;2.67;;;12.20;1.00;;;;;;20866088;28;20076;-40
2023/06/02 00:53:45;;;;;;;7.40;2.30;;;12.10;1.00;;;;;;20877019;28;20064;-40
2023/06/02 01:03:49;;;;;;;9.35;2.70;;;12.00;1.00;;;;;;20867783;28;20511;-40
2023/06/02 01:13:50;;;;;;;4.53;2.50;;;11.80;1.00;;;;;;20893883;28;20045;-40
2023/06/02 01:23:52;;;;;;;11.60;1.83;;;11.80;1.00;;;;;;20882010;28;20037;-40
2023/06/02 01:34:05;;;;;;;8.60;1.63;;;11.80;1.00;;;;;;20887134;28;20040;-40
2023/06/02 01:44:06;;;;;;;6.88;2.53;;;11.80;1.00;;;;;;20899560;28;20040;-40
2023/06/02 01:54:07;;;;;;;5.20;1.45;;;11.70;1.00;;;;;;20890350;28;20044;-40
2023/06/02 02:04:08;;;;;;;2.67;1.15;;;11.70;1.00;;;;;;20892601;28;20487;-40
2023/06/02 02:14:12;;;;;;;3.83;1.42;;;11.60;1.00;;;;;;20890741;28;20390;-40
2023/06/02 02:24:16;;;;;;;2.08;0.95;;;11.40;1.00;;;;;;20877083;28;20041;-40
2023/06/02 02:34:19;;;;;;;4.50;1.75;;;11.50;1.00;;;;;;20876234;28;21191;-40
2023/06/02 02:44:22;;;;;;;7.82;1.65;;;11.50;1.00;;;;;;20872897;28;20036;-40
2023/06/02 02:54:25;;;;;;;2.58;1.40;;;11.50;1.00;;;;;;20879961;28;20500;-40
2023/06/02 03:04:26;;;;;;;7.15;1.98;;;11.50;1.00;;;;;;20877807;28;20483;-41
2023/06/02 03:14:28;;;;;;;4.38;1.50;;;11.40;1.00;;;;;;20875426;28;20048;-41
2023/06/02 03:24:29;;;;;;;3.75;1.90;;;11.30;1.00;;;;;;20890132;28;20024;-40
2023/06/02 03:34:30;;;;;;;8.32;1.30;;;11.40;1.00;;;;;;20873363;28;20056;-40
2023/06/02 03:44:31;;;;;;;10.50;1.98;;;11.40;1.00;;;;;;20879223;28;20045;-40
2023/06/02 03:54:32;;;;;;;4.75;1.23;;;11.40;1.00;;;;;;20877642;28;20400;-40
2023/06/02 04:04:33;;;;;;;4.88;1.38;;;11.30;1.00;;;;;;20870862;28;20048;-40
2023/06/02 04:14:34;;;;;;;4.90;1.27;;;11.30;1.00;;;;;;20880813;28;20147;-40
2023/06/02 04:24:53;;;;;;;5.00;1.27;;;11.30;1.00;;;;;;20910536;28;20182;-40
2023/06/02 04:35:14;;;;;;;5.22;1.95;;;11.30;1.00;;;;;;20866514;28;20142;-40
2023/06/02 04:45:20;;;;;;;3.15;1.17;;;11.30;1.00;;;;;;20867074;28;20041;-40
2023/06/02 04:55:21;;;;;;;3.60;1.25;;;11.30;1.00;;;;;;20891707;28;20140;-41
2023/06/02 05:05:22;;;;;;;5.60;2.00;;;11.40;1.00;;;;;;20893111;28;20036;-40
2023/06/02 05:15:23;;;;;;;7.03;1.27;;;11.30;1.00;;;;;;20893231;28;20415;-41
2023/06/02 05:25:24;;;;;;;4.45;1.30;;;11.20;1.00;;;;;;20903572;28;21359;-40
2023/06/02 05:35:25;;;;;;;2.53;0.95;;;11.00;1.00;;;;;;20882204;28;20500;-40
2023/06/02 05:45:26;;;;;;;7.10;2.20;;;11.20;1.00;;;;;;20885525;28;20056;-41
2023/06/02 05:55:27;;;;;;;11.70;1.48;;;11.20;1.00;;;;;;20886745;28;20051;-41
2023/06/02 06:05:34;;;;;;;7.30;1.48;;;11.30;1.00;;;;;;20875403;28;20041;-40
2023/06/02 06:15:35;;;;;;;3.35;1.23;;;11.40;1.00;;;;;;20890815;28;20048;-40
2023/06/02 06:25:36;;;;;;;6.05;1.65;;;11.50;1.00;;;;;;20890641;28;20484;-41
2023/06/02 06:35:37;;;;;;;9.05;1.70;;;11.60;1.00;;;;;;20886943;28;20048;-41
2023/06/02 06:45:38;;;;;;;4.22;1.50;;;11.60;1.00;;;;;;20880804;28;20052;-41
2023/06/02 06:55:45;;;;;;;6.93;1.15;;;11.80;1.00;;;;;;20881203;28;20040;-40
2023/06/02 07:05:46;;;;;;;8.68;1.92;;;11.90;1.00;;;;;;20869106;28;20500;-40
2023/06/02 07:15:48;;;;;;;8.07;1.38;;;12.20;1.00;;;;;;20874678;28;20340;-41
2023/06/02 07:25:49;;;;;;;6.35;1.95;;;12.20;1.00;;;;;;20837540;28;20531;-41
2023/06/02 07:35:50;;;;;;;4.47;1.00;;;12.50;1.00;;;;;;20864496;28;20044;-41
2023/06/02 07:45:51;;;;;;;13.82;1.13;;;12.60;1.00;;;;;;20861030;28;20033;-40
2023/06/02 07:55:52;;;;;;;6.57;1.75;;;12.60;1.00;;;;;;20868214;28;20036;-40
2023/06/02 08:05:53;;;;;;;5.90;1.92;;;12.60;1.00;;;;;;20871630;28;20041;-42
2023/06/02 08:15:55;;;;;;;6.63;1.75;;;12.60;1.00;;;;;;20880397;28;20536;-42
2023/06/02 08:25:58;;;;;;;5.35;1.10;;;12.70;1.00;;;;;;20882021;28;20068;-42
2023/06/02 08:36:00;;;;;;;14.07;2.83;;;12.70;1.00;;;;;;20882041;28;20639;-42
2023/06/02 08:46:02;;;;;;;4.15;1.30;;;12.90;1.00;;;;;;20873809;28;20502;-42
2023/06/02 08:56:04;;;;;;;3.75;1.90;;;12.80;1.00;;;;;;20868797;28;20041;-42
2023/06/02 09:06:18;;;;;;;13.18;2.00;;;12.80;1.00;;;;;;20867625;28;20069;-42
2023/06/02 09:16:20;;;;;;;5.50;1.60;;;12.80;1.00;;;;;;20873781;28;20053;-42
2023/06/02 09:26:25;;;;;;;8.57;1.75;;;12.90;1.00;;;;;;20876700;28;20086;-42
2023/06/02 09:36:29;;;;;;;11.15;2.53;;;13.00;1.00;;;;;;20877726;28;20041;-41
2023/06/02 09:46:39;;;;;;;5.90;1.77;;;13.20;1.00;;;;;;20895693;28;20044;-42
2023/06/02 09:56:40;;;;;;;6.38;1.52;;;13.30;1.00;;;;;;20902668;28;20040;-41
2023/06/02 10:06:57;;;;;;;8.23;2.22;;;13.60;1.00;;;;;;20888665;28;20032;-40
2023/06/02 10:17:13;;;;;;;6.25;1.63;;;13.90;1.00;;;;;;20875608;28;20689;-40
2023/06/02 10:27:34;;;;;;;7.30;1.63;;;14.10;1.00;;;;;;20869139;28;20451;-40
2023/06/02 10:37:37;;;;;;;11.95;2.30;;;14.20;1.00;;;;;;20886045;28;20075;-42
2023/06/02 10:47:38;;;;;;;7.15;1.88;;;14.30;1.00;;;;;;20892892;28;20033;-40
2023/06/02 10:57:53;;;;;;;9.98;1.98;;;14.60;1.00;;;;;;20872959;28;20044;-40
2023/06/02 11:08:27;;;;;;;6.68;1.83;;;14.50;1.00;;;;;;20867989;28;20052;-40
2023/06/02 11:18:30;;;;;;;8.52;2.40;;;14.60;1.00;;;;;;20837889;28;20528;-40
2023/06/02 11:28:31;;;;;;;4.68;2.00;;;14.60;1.00;;;;;;20871919;28;20056;-40
2023/06/02 11:38:32;;;;;;;6.35;1.50;;;14.70;1.00;;;;;;20884944;28;20036;-39
2023/06/02 11:48:36;;;;;;;6.97;2.72;;;14.80;1.00;;;;;;20876604;28;20028;-40
2023/06/02 11:58:45;;;;;;;8.55;2.50;;;14.90;1.00;;;;;;20874479;28;20059;-40
2023/06/02 12:08:46;;;;;;;8.70;2.10;;;15.20;1.00;;;;;;20862102;28;20037;-41
2023/06/02 12:18:48;;;;;;;4.75;2.00;;;15.50;1.00;;;;;;20859687;28;20052;-40
2023/06/02 12:28:50;;;;;;;6.68;1.90;;;15.70;1.00;;;;;;20878065;28;20535;-40
2023/06/02 12:38:52;;;;;;;9.30;2.40;;;15.70;1.00;;;;;;20863776;28;20092;-40
2023/06/02 12:48:53;;;;;;;5.95;2.00;;;16.20;1.00;;;;;;20858185;28;20032;-40
2023/06/02 12:58:54;;;;;;;9.55;2.42;;;16.20;1.00;;;;;;20857765;28;20061;-40
2023/06/02 13:08:55;;;;;;;9.18;2.42;;;16.30;1.00;;;;;;20888551;28;20032;-40
2023/06/02 13:18:57;;;;;;;4.82;2.35;;;17.00;1.00;;;;;;20897048;28;20048;-40
2023/06/02 13:28:58;;;;;;;5.35;2.22;;;17.10;1.00;;;;;;20898687;28;20203;-40
2023/06/02 13:38:59;;;;;;;10.57;2.78;;;17.30;1.00;;;;;;20891637;28;20088;-40
2023/06/02 13:49:00;;;;;;;6.25;2.38;;;17.40;1.00;;;;;;20888205;28;20033;-40
2023/06/02 13:59:01;;;;;;;6.18;2.25;;;17.70;1.00;;;;;;20891449;28;20051;-40
2023/06/02 14:09:07;;;;;;;7.90;2.22;;;17.90;1.00;;;;;;20908386;28;20056;-40
2023/06/02 14:19:08;;;;;;;9.73;2.95;;;18.00;1.00;;;;;;20895987;28;20072;-41
2023/06/02 14:29:09;;;;;;;6.53;1.85;;;18.40;1.00;;;;;;20886517;28;20496;-41
2023/06/02 14:39:11;;;;;;;7.30;2.03;;;18.30;1.00;;;;;;20872591;28;20044;-40
2023/06/02 14:49:12;;;;;;;7.72;2.40;;;18.40;1.00;;;;;;20869128;28;20115;-40
2023/06/02 14:59:17;;;;;;;6.60;1.30;;;18.50;1.00;;;;;;20875310;28;20045;-40
2023/06/02 15:09:18;;;;;;;8.40;1.88;;;18.60;1.00;;;;;;20865302;28;20037;-40
2023/06/02 15:19:19;;;;;;;4.65;1.08;;;18.60;1.00;;;;;;20874628;28;20336;-40
2023/06/02 15:29:22;;;;;;;5.30;1.15;;;18.60;1.00;;;;;;20866347;28;20032;-40
2023/06/02 15:39:24;;;;;;;4.70;1.27;;;18.50;1.00;;;;;;20870849;28;20052;-40
2023/06/02 15:49:27;;;;;;;2.75;0.50;;;18.60;1.00;;;;;;20866651;28;20043;-40
2023/06/02 15:59:28;;;;;;;1.67;0.40;;;18.40;1.00;;;;;;20868650;28;20043;-40
2023/06/02 16:09:32;;;;;;;2.15;0.52;;;18.40;1.00;;;;;;20862581;28;20039;-40
2023/06/02 16:19:33;;;;;;;5.10;1.05;;;18.50;1.00;;;;;;20865188;28;20041;-38
2023/06/02 16:29:34;;;;;;;1.95;0.75;;;18.30;1.00;;;;;;20870035;28;20039;-38
2023/06/02 16:39:35;;;;;;;2.15;0.50;;;18.20;1.00;;;;;;20864808;28;20376;-38
2023/06/02 16:49:37;;;;;;;3.65;0.80;;;18.10;1.00;;;;;;20861243;28;20036;-38
2023/06/02 16:59:38;;;;;;;2.65;0.82;;;18.00;1.00;;;;;;20860920;28;20033;-39
2023/06/02 17:09:39;;;;;;;2.38;1.02;;;18.10;1.00;;;;;;20861873;28;20040;-39
2023/06/02 17:19:41;;;;;;;3.47;0.95;;;18.00;1.00;;;;;;20872500;28;20049;-39
2023/06/02 17:29:42;;;;;;;3.15;0.95;;;17.90;1.00;;;;;;20879876;28;20064;-39
2023/06/02 17:39:43;;;;;;;3.83;1.10;;;17.70;1.00;;;;;;20892656;28;20041;-39
2023/06/02 17:49:44;;;;;;;4.63;1.42;;;17.60;1.00;;;;;;20892105;28;20024;-39
2023/06/02 17:59:45;;;;;;;7.93;2.47;;;17.50;1.00;;;;;;20891300;28;20048;-39
2023/06/02 18:09:47;;;;;;;3.08;1.30;;;17.40;1.00;;;;;;20875286;28;23373;-39
2023/06/02 18:19:48;;;;;;;2.97;1.23;;;17.30;1.00;;;;;;20867451;28;20036;-39
2023/06/02 18:29:49;;;;;;;7.30;1.60;;;17.20;1.00;;;;;;20873138;28;20587;-39
2023/06/02 18:39:50;;;;;;;6.00;1.83;;;17.00;1.00;;;;;;20866020;28;20044;-39
2023/06/02 18:49:52;;;;;;;5.80;1.63;;;16.90;1.00;;;;;;20879300;28;20093;-39
2023/06/02 18:59:53;;;;;;;3.92;1.70;;;16.80;1.00;;;;;;20870548;28;20393;-40
2023/06/02 19:09:54;;;;;;;4.10;1.85;;;16.80;1.00;;;;;;20879482;28;20033;-40
2023/06/02 19:19:55;;;;;;;28.02;3.15;;;16.70;1.00;;;;;;20879229;28;20052;-40
2023/06/02 19:29:56;;;;;;;5.00;2.25;;;16.60;1.00;;;;;;20885469;28;20470;-40
2023/06/02 19:39:57;;;;;;;2.67;1.38;;;16.50;1.00;;;;;;20892384;28;20064;-40
2023/06/02 19:49:59;;;;;;;5.45;1.88;;;16.40;1.00;;;;;;20885796;28;20044;-40
2023/06/02 20:00:03;;;;;;;9.70;2.92;;;16.30;1.00;;;;;;20887533;28;20041;-40
2023/06/02 20:10:05;;;;;;;4.00;1.42;;;16.20;1.00;;;;;;20878816;28;20035;-40
2023/06/02 20:20:06;;;;;;;2.70;1.45;;;16.10;1.00;;;;;;20891228;28;20184;-40
2023/06/02 20:30:08;;;;;;;2.20;1.27;;;16.00;1.00;;;;;;20891310;28;20037;-40
2023/06/02 20:40:10;;;;;;;4.32;1.95;;;15.90;1.00;;;;;;20881889;28;20594;-40
2023/06/02 20:50:11;;;;;;;2.28;1.27;;;15.70;1.00;;;;;;20890327;28;20169;-40
2023/06/02 21:00:13;;;;;;;3.08;1.30;;;15.60;1.00;;;;;;20894151;28;20401;-40
2023/06/02 21:10:14;;;;;;;3.10;1.70;;;15.60;1.00;;;;;;20897715;28;20041;-40
2023/06/02 21:20:15;;;;;;;2.95;1.40;;;15.50;1.00;;;;;;20882781;28;20432;-40
2023/06/02 21:30:17;;;;;;;4.07;1.50;;;15.40;1.00;;;;;;20889518;28;20158;-40
2023/06/02 21:40:18;;;;;;;4.68;1.20;;;15.20;1.00;;;;;;20900211;28;20036;-40
2023/06/02 21:50:23;;;;;;;2.20;1.27;;;15.10;1.00;;;;;;20898748;28;20036;-40
2023/06/02 22:00:25;;;;;;;4.53;2.25;;;15.00;1.00;;;;;;20897857;28;20041;-40
2023/06/02 22:10:26;;;;;;;3.55;1.50;;;14.90;1.00;;;;;;20894102;28;20052;-40
2023/06/02 22:20:28;;;;;;;7.10;1.63;;;14.70;1.00;;;;;;20897961;28;20081;-40
2023/06/02 22:30:29;;;;;;;2.90;1.02;;;14.50;1.00;;;;;;20902789;28;20040;-40
2023/06/02 22:40:30;;;;;;;3.85;1.10;;;14.40;1.00;;;;;;20892333;28;20045;-40
2023/06/02 22:50:31;;;;;;;2.63;1.38;;;14.30;1.00;;;;;;20896996;28;20404;-40
2023/06/02 23:00:32;;;;;;;3.80;1.25;;;14.10;1.00;;;;;;20902222;28;20466;-40
2023/06/02 23:10:33;;;;;;;2.72;1.40;;;14.00;1.00;;;;;;20893881;28;20479;-40
2023/06/02 23:20:34;;;;;;;3.75;1.95;;;13.90;1.00;;;;;;20895027;28;20045;-41
2023/06/02 23:30:35;;;;;;;4.15;2.08;;;13.70;1.00;;;;;;20891281;28;20504;-40
2023/06/02 23:40:36;;;;;;;3.72;1.40;;;13.60;1.00;;;;;;20894614;28;20486;-41
2023/06/02 23:50:38;;;;;;;3.40;1.40;;;13.50;1.00;;;;;;20893037;28;20047;-40
